Time;durP1;ratioP1;P1;durP2;ratioP2;P2;SDS_P1;SDS_P2;PMS_P1;PMS_P2;Temp;Humidity;BMP_temperature;BMP_pressure;BME280_temperature;BME280_humidity;BME280_pressure;Samples;Min_cycle;Max_cycle;Signal;HPM_P1;HPM_P2
2022/04/10 00:00:45;;;;;;;;;;;19.50;46.40;;;;;;5066965;28;43057;-89
2022/04/10 00:03:10;;;;;;;;;;;19.50;46.70;;;;;;5067973;28;43985;-90
2022/04/10 00:05:36;;;;;;;;;;;19.40;46.20;;;;;;5067609;28;43014;-90
2022/04/10 00:08:02;;;;;;;;;;;19.40;46.20;;;;;;5067488;28;43457;-90
2022/04/10 00:10:28;;;;;;;;;;;19.50;46.20;;;;;;5067836;28;43001;-90
2022/04/10 00:12:54;;;;;;;;;;;19.50;46.20;;;;;;5067464;28;42870;-91
2022/04/10 00:15:20;;;;;;;;;;;19.50;46.20;;;;;;5067928;28;43051;-90
2022/04/10 00:17:46;;;;;;;;;;;19.50;46.20;;;;;;5067391;28;43291;-92
2022/04/10 00:20:18;;;;;;;;;;;19.50;46.70;;;;;;5066390;28;43109;-92
2022/04/10 00:22:44;;;;;;;;;;;19.50;46.30;;;;;;5067202;28;42952;-90
2022/04/10 00:25:11;;;;;;;;;;;19.50;46.20;;;;;;5067752;28;43013;-90
2022/04/10 00:27:37;;;;;;;;;;;19.50;46.20;;;;;;5067369;28;43534;-90
2022/04/10 00:30:03;;;;;;;;;;;19.50;46.20;;;;;;5066914;28;43076;-90
2022/04/10 00:32:29;;;;;;;;;;;19.50;46.20;;;;;;5067145;28;43504;-91
2022/04/10 00:34:54;;;;;;;;;;;19.30;46.50;;;;;;5049706;28;43173;-89
2022/04/10 00:37:20;;;;;;;;;;;19.50;46.20;;;;;;5067071;28;43401;-90
2022/04/10 00:39:45;;;;;;;;;;;19.50;46.20;;;;;;5066892;28;42894;-89
2022/04/10 00:42:15;;;;;;;;;;;19.50;46.60;;;;;;5067650;28;43903;-89
2022/04/10 00:44:41;;;;;;;;;;;19.50;46.20;;;;;;5068217;28;43022;-89
2022/04/10 00:47:10;;;;;;;;;;;19.50;46.20;;;;;;5068175;28;42861;-89
2022/04/10 00:49:38;;;;;;;;;;;19.50;46.20;;;;;;5065559;28;42998;-87
2022/04/10 00:52:06;;;;;;;;;;;19.50;46.30;;;;;;5049137;28;45145;-88
2022/04/10 00:54:33;;;;;;;;;;;19.50;46.20;;;;;;5067685;28;42961;-88
2022/04/10 00:57:00;;;;;;;;;;;19.50;46.20;;;;;;5066861;28;43516;-87
2022/04/10 00:59:26;;;;;;;;;;;19.50;46.40;;;;;;5066927;28;43144;-87
2022/04/10 01:01:52;;;;;;;;;;;19.50;46.20;;;;;;5081925;28;42513;-88
2022/04/10 01:04:21;;;;;;;;;;;19.50;46.20;;;;;;5088338;27;42377;-86
2022/04/10 01:06:47;;;;;;;;;;;17.70;45.40;;;;;;5071813;28;44386;-89
2022/04/10 01:09:13;;;;;;;;;;;19.50;46.20;;;;;;5077634;28;43038;-88
2022/04/10 01:11:39;;;;;;;;;;;19.50;46.30;;;;;;5069227;28;43630;-88
2022/04/10 01:14:05;;;;;;;;;;;19.50;46.20;;;;;;5068127;28;42904;-88
2022/04/10 01:16:31;;;;;;;;;;;17.20;45.10;;;;;;5067724;28;43067;-89
2022/04/10 01:18:56;;;;;;;;;;;19.50;46.30;;;;;;5068693;28;42969;-87
2022/04/10 01:21:23;;;;;;;;;;;19.50;46.20;;;;;;5068984;28;43047;-89
2022/04/10 01:23:50;;;;;;;;;;;19.50;46.20;;;;;;5068608;28;42971;-89
2022/04/10 01:26:18;;;;;;;;;;;19.50;46.20;;;;;;5068456;28;44117;-89
2022/04/10 01:28:57;;;;;;;;;;;19.50;46.30;;;;;;5049213;28;43040;-90
2022/04/10 01:31:22;;;;;;;;;;;19.50;46.20;;;;;;5047557;28;45356;-90
2022/04/10 01:33:48;;;;;;;;;;;19.50;46.30;;;;;;5066491;28;43048;-90
2022/04/10 01:36:14;;;;;;;;;;;19.50;46.20;;;;;;5066040;28;42958;-90
2022/04/10 01:38:41;;;;;;;;;;;19.50;46.60;;;;;;5048290;28;43014;-86
2022/04/10 01:41:10;;;;;;;;;;;19.50;46.30;;;;;;5065581;28;44857;-86
2022/04/10 01:43:43;;;;;;;;;;;19.50;46.20;;;;;;5069733;28;43210;-86
2022/04/10 01:46:10;;;;;;;;;;;19.50;46.20;;;;;;5069964;28;43423;-86
2022/04/10 01:48:36;;;;;;;;;;;19.50;46.20;;;;;;5068924;28;43161;-86
2022/04/10 01:51:01;;;;;;;;;;;19.50;46.30;;;;;;5068383;28;43218;-87
2022/04/10 01:53:27;;;;;;;;;;;19.50;46.30;;;;;;5068881;28;42968;-86
2022/04/10 01:55:52;;;;;;;;;;;19.50;46.70;;;;;;5067854;28;43985;-86
2022/04/10 01:58:18;;;;;;;;;;;19.50;46.30;;;;;;5070013;28;43189;-86
2022/04/10 02:00:43;;;;;;;;;;;19.60;46.30;;;;;;5067980;28;45185;-86
2022/04/10 02:03:09;;;;;;;;;;;19.50;46.30;;;;;;5065078;28;43345;-86
2022/04/10 02:05:37;;;;;;;;;;;19.50;46.20;;;;;;5067618;28;43121;-85
2022/04/10 02:08:03;;;;;;;;;;;19.50;46.20;;;;;;5068495;28;43150;-88
2022/04/10 02:10:28;;;;;;;;;;;19.50;46.30;;;;;;5067737;28;42880;-89
2022/04/10 02:12:54;;;;;;;;;;;19.50;46.70;;;;;;5050560;28;43026;-89
2022/04/10 02:15:19;;;;;;;;;;;19.50;46.30;;;;;;5068998;28;43961;-89
2022/04/10 02:18:17;;;;;;;;;;;19.50;46.30;;;;;;5068480;28;42969;-83
2022/04/10 02:20:52;;;;;;;;;;;18.80;45.90;;;;;;5069745;28;43535;-82
2022/04/10 02:23:18;;;;;;;;;;;19.50;46.40;;;;;;5051687;28;43304;-81
2022/04/10 02:25:47;;;;;;;;;;;19.50;46.30;;;;;;5070685;28;42923;-87
2022/04/10 02:28:13;;;;;;;;;;;19.50;46.30;;;;;;5050072;28;43015;-88
2022/04/10 02:30:51;;;;;;;;;;;19.50;46.30;;;;;;5067030;28;44507;-85
2022/04/10 02:33:17;;;;;;;;;;;20.50;46.70;;;;;;5049788;28;43093;-87
2022/04/10 02:35:43;;;;;;;;;;;19.50;46.30;;;;;;5049282;28;43587;-87
2022/04/10 02:38:08;;;;;;;;;;;19.50;46.20;;;;;;5066619;28;42957;-86
2022/04/10 02:40:34;;;;;;;;;;;19.50;46.30;;;;;;5067967;28;43066;-86
2022/04/10 02:42:59;;;;;;;;;;;19.50;46.30;;;;;;5067860;28;42839;-86
2022/04/10 02:45:25;;;;;;;;;;;19.50;46.20;;;;;;5067692;28;43081;-84
2022/04/10 02:47:51;;;;;;;;;;;19.50;46.40;;;;;;5068827;28;42756;-86
2022/04/10 02:50:16;;;;;;;;;;;19.50;46.40;;;;;;5068971;28;42959;-86
2022/04/10 02:52:42;;;;;;;;;;;21.90;47.70;;;;;;5067012;28;43815;-87
2022/04/10 02:58:09;;;;;;;;;;;19.50;46.30;;;;;;5065549;28;43540;-87
2022/04/10 03:00:34;;;;;;;;;;;19.30;46.10;;;;;;5048280;28;45686;-88
2022/04/10 03:03:00;;;;;;;;;;;19.50;46.40;;;;;;5066593;28;42840;-90
2022/04/10 03:05:25;;;;;;;;;;;19.50;46.20;;;;;;5065918;28;42950;-90
2022/04/10 03:07:51;;;;;;;;;;;19.50;46.20;;;;;;5064801;28;43087;-90
2022/04/10 03:10:16;;;;;;;;;;;19.50;46.20;;;;;;5064612;28;42908;-89
2022/04/10 03:12:42;;;;;;;;;;;19.50;46.20;;;;;;5066331;28;43084;-91
2022/04/10 03:15:08;;;;;;;;;;;19.50;46.20;;;;;;5065685;28;42983;-90
2022/04/10 03:17:33;;;;;;;;;;;19.50;46.20;;;;;;5064770;28;42994;-90
2022/04/10 03:19:59;;;;;;;;;;;19.50;46.20;;;;;;5065015;28;43530;-91
2022/04/10 03:22:24;;;;;;;;;;;19.50;46.20;;;;;;5065475;28;42770;-90
2022/04/10 03:24:50;;;;;;;;;;;19.50;46.20;;;;;;5047534;28;43701;-91
2022/04/10 03:27:15;;;;;;;;;;;19.50;46.70;;;;;;5048418;28;43194;-91
2022/04/10 03:29:41;;;;;;;;;;;19.50;46.20;;;;;;5064655;28;43231;-90
2022/04/10 03:32:07;;;;;;;;;;;19.50;46.20;;;;;;5066038;28;43104;-89
2022/04/10 03:34:40;;;;;;;;;;;21.50;48.00;;;;;;5049212;28;45029;-90
2022/04/10 03:37:05;;;;;;;;;;;21.70;47.30;;;;;;5068168;28;43223;-91
2022/04/10 03:39:31;;;;;;;;;;;19.40;46.10;;;;;;5067842;28;43427;-90
2022/04/10 03:41:56;;;;;;;;;;;19.50;46.50;;;;;;5069984;28;42938;-90
2022/04/10 03:46:56;;;;;;;;;;;19.60;46.30;;;;;;5102736;27;43373;-90
2022/04/10 03:49:22;;;;;;;;;;;19.50;46.10;;;;;;5089647;28;43598;-89
2022/04/10 03:51:47;;;;;;;;;;;19.50;46.50;;;;;;5087460;28;42887;-89
2022/04/10 03:54:13;;;;;;;;;;;19.50;46.20;;;;;;5088690;28;43549;-89
2022/04/10 03:56:39;;;;;;;;;;;19.50;46.20;;;;;;5088891;28;42991;-89
2022/04/10 03:59:04;;;;;;;;;;;19.50;46.40;;;;;;5087764;27;43110;-91
2022/04/10 04:01:30;;;;;;;;;;;19.50;46.20;;;;;;5087643;28;42842;-89
2022/04/10 04:03:55;;;;;;;;;;;19.50;46.20;;;;;;5086368;27;43359;-89
2022/04/10 04:06:21;;;;;;;;;;;19.50;46.30;;;;;;5087775;28;42907;-89
2022/04/10 04:08:46;;;;;;;;;;;19.50;46.10;;;;;;5086796;28;43649;-90
2022/04/10 04:11:12;;;;;;;;;;;19.40;46.10;;;;;;5086717;27;43014;-90
2022/04/10 04:13:38;;;;;;;;;;;19.50;46.20;;;;;;5103079;27;43539;-90
2022/04/10 04:16:04;;;;;;;;;;;19.50;46.10;;;;;;5088199;27;42991;-90
2022/04/10 04:18:30;;;;;;;;;;;19.50;46.20;;;;;;5086622;28;43632;-91
2022/04/10 04:20:58;;;;;;;;;;;19.50;46.20;;;;;;5094527;27;43269;-89
2022/04/10 04:23:24;;;;;;;;;;;19.40;46.10;;;;;;5096277;27;43473;-89
2022/04/10 04:25:50;;;;;;;;;;;19.50;46.20;;;;;;5095706;27;42889;-90
2022/04/10 04:28:15;;;;;;;;;;;19.50;46.20;;;;;;5097135;27;42856;-90
2022/04/10 04:30:41;;;;;;;;;;;19.50;46.20;;;;;;5097530;27;42889;-89
2022/04/10 04:33:06;;;;;;;;;;;19.40;46.10;;;;;;5095158;27;43378;-91
2022/04/10 04:35:32;;;;;;;;;;;19.50;46.20;;;;;;5094251;27;42959;-86
2022/04/10 04:38:00;;;;;;;;;;;19.50;46.10;;;;;;5095729;27;42996;-86
2022/04/10 04:40:25;;;;;;;;;;;19.40;46.10;;;;;;5104515;27;43376;-86
2022/04/10 04:42:51;;;;;;;;;;;19.50;46.10;;;;;;5107449;27;43126;-86
2022/04/10 04:45:18;;;;;;;;;;;19.50;46.10;;;;;;5096089;27;43341;-86
2022/04/10 04:47:44;;;;;;;;;;;19.50;46.10;;;;;;5085303;27;43380;-87
2022/04/10 04:50:09;;;;;;;;;;;19.50;46.10;;;;;;5087089;27;42862;-87
2022/04/10 04:52:35;;;;;;;;;;;19.40;46.10;;;;;;5085405;28;43060;-86
2022/04/10 04:55:00;;;;;;;;;;;19.40;46.10;;;;;;5086367;28;42859;-86
2022/04/10 04:57:26;;;;;;;;;;;19.40;46.10;;;;;;5086211;28;43404;-87
2022/04/10 04:59:51;;;;;;;;;;;19.50;46.20;;;;;;5084908;28;43099;-85
2022/04/10 05:02:17;;;;;;;;;;;19.40;46.10;;;;;;5085204;28;42931;-87
2022/04/10 05:04:42;;;;;;;;;;;19.50;46.20;;;;;;5094557;27;42949;-86
2022/04/10 05:07:08;;;;;;;;;;;19.50;46.10;;;;;;5105688;27;43635;-88
2022/04/10 05:09:34;;;;;;;;;;;19.50;46.20;;;;;;5106760;27;42945;-86
2022/04/10 05:12:00;;;;;;;;;;;19.40;46.60;;;;;;5104276;27;44496;-84
2022/04/10 05:14:25;;;;;;;;;;;19.40;46.10;;;;;;5106186;27;43021;-85
2022/04/10 05:16:51;;;;;;;;;;;19.40;46.50;;;;;;5106338;27;43118;-87
2022/04/10 05:19:16;;;;;;;;;;;19.40;46.10;;;;;;5105895;27;43101;-80
2022/04/10 05:21:42;;;;;;;;;;;19.40;46.40;;;;;;5105658;27;42996;-81
2022/04/10 05:24:07;;;;;;;;;;;19.50;46.30;;;;;;5085768;27;43018;-80
2022/04/10 05:26:33;;;;;;;;;;;19.50;46.20;;;;;;5084627;28;42888;-80
2022/04/10 05:28:58;;;;;;;;;;;19.50;46.20;;;;;;5081278;27;43077;-80
2022/04/10 05:31:24;;;;;;;;;;;19.50;46.70;;;;;;5084943;28;42999;-80
2022/04/10 05:33:51;;;;;;;;;;;19.50;46.40;;;;;;5085420;27;43040;-79
2022/04/10 05:36:17;;;;;;;;;;;19.40;46.10;;;;;;5098803;27;43058;-80
2022/04/10 05:38:45;;;;;;;;;;;19.40;46.10;;;;;;5083859;27;43032;-79
2022/04/10 05:41:12;;;;;;;;;;;19.50;46.10;;;;;;5083650;27;43344;-79
2022/04/10 05:43:37;;;;;;;;;;;19.50;46.10;;;;;;5088492;27;42917;-80
2022/04/10 05:46:06;;;;;;;;;;;19.40;46.10;;;;;;5093991;27;43666;-79
2022/04/10 05:48:32;;;;;;;;;;;19.40;46.10;;;;;;5090481;27;43044;-87
2022/04/10 05:50:57;;;;;;;;;;;19.50;46.20;;;;;;5082295;27;43090;-87
2022/04/10 05:53:26;;;;;;;;;;;19.40;46.20;;;;;;5081659;28;42907;-87
2022/04/10 05:55:54;;;;;;;;;;;19.40;46.20;;;;;;5083892;27;43502;-91
2022/04/10 05:58:21;;;;;;;;;;;19.40;47.40;;;;;;5084501;28;42969;-88
2022/04/10 06:00:46;;;;;;;;;;;19.50;46.90;;;;;;5089165;27;43158;-86
2022/04/10 06:03:12;;;;;;;;;;;19.50;46.50;;;;;;5075700;28;43173;-76
2022/04/10 06:05:38;;;;;;;;;;;19.40;42.70;;;;;;5081308;27;43314;-76
2022/04/10 06:08:03;;;;;;;;;;;19.20;40.40;;;;;;5083886;28;43172;-76
2022/04/10 06:10:29;;;;;;;;;;;19.20;39.60;;;;;;5081651;28;43332;-76
2022/04/10 06:13:05;;;;;;;;;;;19.10;38.70;;;;;;5084791;27;42980;-76
2022/04/10 06:15:31;;;;;;;;;;;19.00;39.40;;;;;;5085123;28;43080;-75
2022/04/10 06:17:56;;;;;;;;;;;19.00;38.90;;;;;;5083850;28;43193;-74
2022/04/10 06:20:22;;;;;;;;;;;19.00;38.90;;;;;;5082837;28;43415;-74
2022/04/10 06:22:47;;;;;;;;;;;19.00;38.40;;;;;;5088127;27;43226;-74
2022/04/10 06:25:13;;;;;;;;;;;18.90;38.30;;;;;;5091910;27;43241;-76
2022/04/10 06:27:38;;;;;;;;;;;18.90;38.40;;;;;;5082034;27;43122;-75
2022/04/10 06:30:04;;;;;;;;;;;18.90;38.40;;;;;;5088819;27;43625;-77
2022/04/10 06:32:30;;;;;;;;;;;18.80;37.30;;;;;;5084122;27;42893;-75
2022/04/10 06:34:55;;;;;;;;;;;18.80;38.70;;;;;;5097270;27;43681;-79
2022/04/10 06:37:21;;;;;;;;;;;18.80;36.90;;;;;;5097600;27;42961;-75
2022/04/10 06:39:46;;;;;;;;;;;18.70;36.90;;;;;;5088999;27;43161;-79
2022/04/10 06:42:12;;;;;;;;;;;18.70;36.50;;;;;;5088667;27;43104;-79
2022/04/10 06:44:40;;;;;;;;;;;18.70;37.50;;;;;;5081111;27;43423;-77
2022/04/10 06:47:05;;;;;;;;;;;18.70;37.40;;;;;;5080836;28;43282;-77
2022/04/10 06:49:31;;;;;;;;;;;18.70;37.70;;;;;;5082640;27;43284;-74
2022/04/10 06:51:57;;;;;;;;;;;18.70;37.40;;;;;;5082755;27;43145;-74
2022/04/10 06:54:22;;;;;;;;;;;18.60;37.00;;;;;;5083674;28;42990;-73
2022/04/10 06:56:48;;;;;;;;;;;18.60;36.10;;;;;;5082356;28;42958;-77
2022/04/10 06:59:13;;;;;;;;;;;18.60;37.40;;;;;;5083405;28;42976;-77
2022/04/10 07:01:39;;;;;;;;;;;18.70;38.20;;;;;;5083349;27;43145;-74
2022/04/10 07:04:05;;;;;;;;;;;18.70;38.00;;;;;;5094960;27;43609;-73
2022/04/10 07:06:30;;;;;;;;;;;18.70;38.70;;;;;;5087771;27;43239;-74
2022/04/10 07:08:57;;;;;;;;;;;18.70;38.70;;;;;;5093551;27;43076;-74
2022/04/10 07:11:23;;;;;;;;;;;18.70;38.80;;;;;;5091502;27;42970;-73
2022/04/10 07:13:49;;;;;;;;;;;18.70;38.50;;;;;;5084810;27;42989;-75
2022/04/10 07:16:14;;;;;;;;;;;18.70;38.60;;;;;;5085326;27;43259;-73
2022/04/10 07:18:40;;;;;;;;;;;18.60;38.20;;;;;;5081843;28;43222;-74
2022/04/10 07:21:05;;;;;;;;;;;18.70;38.30;;;;;;5083776;28;42979;-74
2022/04/10 07:23:46;;;;;;;;;;;18.70;38.40;;;;;;5084624;28;43387;-72
2022/04/10 07:26:14;;;;;;;;;;;18.70;38.30;;;;;;5087927;27;43134;-74
2022/04/10 07:28:40;;;;;;;;;;;18.60;38.30;;;;;;5091704;27;42922;-74
2022/04/10 07:31:09;;;;;;;;;;;18.60;38.20;;;;;;5095046;27;43311;-75
2022/04/10 07:33:36;;;;;;;;;;;18.70;38.80;;;;;;5088534;27;43059;-75
2022/04/10 07:36:03;;;;;;;;;;;18.70;38.20;;;;;;5095092;27;43082;-74
2022/04/10 07:38:29;;;;;;;;;;;18.60;38.10;;;;;;5100122;27;43323;-75
2022/04/10 07:44:01;;;;;;;;;;;18.60;36.40;;;;;;5084495;28;43312;-75
2022/04/10 07:49:11;;;;;;;;;;;18.50;34.20;;;;;;5064240;28;43099;-74
2022/04/10 07:51:37;;;;;;;;;;;18.50;36.70;;;;;;5075555;28;42941;-74
2022/04/10 07:54:03;;;;;;;;;;;18.50;33.70;;;;;;5084064;28;43071;-74
2022/04/10 07:56:29;;;;;;;;;;;18.50;35.70;;;;;;5086464;27;43208;-72
2022/04/10 07:58:55;;;;;;;;;;;18.50;35.80;;;;;;5082839;27;43278;-72
2022/04/10 08:01:21;;;;;;;;;;;18.50;36.00;;;;;;5090462;27;43022;-73
2022/04/10 08:03:51;;;;;;;;;;;18.50;36.00;;;;;;5105690;27;42880;-74
2022/04/10 08:06:18;;;;;;;;;;;18.50;36.50;;;;;;5097304;27;42760;-73
2022/04/10 08:08:44;;;;;;;;;;;18.50;36.50;;;;;;5084367;27;43450;-72
2022/04/10 08:11:10;;;;;;;;;;;18.50;36.00;;;;;;5084078;27;43292;-72
2022/04/10 08:13:36;;;;;;;;;;;18.50;35.80;;;;;;5085553;28;42957;-73
2022/04/10 08:16:02;;;;;;;;;;;18.50;36.40;;;;;;5084766;27;42981;-73
2022/04/10 08:18:29;;;;;;;;;;;18.40;35.00;;;;;;5084395;28;43617;-73
2022/04/10 08:20:55;;;;;;;;;;;18.50;35.60;;;;;;5084895;27;43329;-73
2022/04/10 08:23:21;;;;;;;;;;;18.40;35.60;;;;;;5088158;27;43428;-76
2022/04/10 08:25:48;;;;;;;;;;;18.50;35.60;;;;;;5088949;27;43279;-73
2022/04/10 08:28:15;;;;;;;;;;;18.40;35.60;;;;;;5085126;27;43982;-74
2022/04/10 08:30:41;;;;;;;;;;;18.50;36.20;;;;;;5084539;27;42937;-73
2022/04/10 08:33:08;;;;;;;;;;;18.50;36.30;;;;;;5084870;27;43587;-74
2022/04/10 08:35:34;;;;;;;;;;;18.40;35.50;;;;;;5084419;28;43063;-75
2022/04/10 08:38:00;;;;;;;;;;;18.50;35.80;;;;;;5083260;28;43819;-75
2022/04/10 08:40:26;;;;;;;;;;;18.50;37.50;;;;;;5085231;27;43039;-78
2022/04/10 08:42:53;;;;;;;;;;;18.50;36.60;;;;;;5085288;27;43317;-74
2022/04/10 08:45:26;;;;;;;;;;;18.50;36.90;;;;;;5084938;27;43048;-78
2022/04/10 08:47:52;;;;;;;;;;;18.50;35.80;;;;;;5082394;27;44138;-75
2022/04/10 08:50:18;;;;;;;;;;;18.50;37.90;;;;;;5084447;27;42883;-74
2022/04/10 08:52:45;;;;;;;;;;;18.50;36.40;;;;;;5083895;28;44876;-74
2022/04/10 08:55:11;;;;;;;;;;;18.50;36.90;;;;;;5084628;28;42916;-74
2022/04/10 08:57:37;;;;;;;;;;;18.50;36.90;;;;;;5083737;28;44123;-75
2022/04/10 09:00:04;;;;;;;;;;;18.50;36.40;;;;;;5084181;28;42988;-74
2022/04/10 09:02:29;;;;;;;;;;;18.40;35.10;;;;;;5084202;27;42976;-73
2022/04/10 09:04:55;;;;;;;;;;;18.50;35.90;;;;;;5086984;28;42866;-73
2022/04/10 09:07:22;;;;;;;;;;;18.50;35.60;;;;;;5086077;27;44540;-73
2022/04/10 09:09:57;;;;;;;;;;;18.40;35.50;;;;;;5075951;27;43460;-76
2022/04/10 09:12:24;;;;;;;;;;;18.40;35.10;;;;;;5083445;27;43862;-78
2022/04/10 09:14:50;;;;;;;;;;;18.50;34.50;;;;;;5082409;27;43003;-73
2022/04/10 09:17:16;;;;;;;;;;;18.40;35.60;;;;;;5074655;27;43018;-75
2022/04/10 09:19:44;;;;;;;;;;;18.40;36.50;;;;;;5078362;27;43118;-75
2022/04/10 09:22:23;;;;;;;;;;;18.40;36.10;;;;;;5082161;27;43173;-80
2022/04/10 09:25:07;;;;;;;;;;;18.50;36.70;;;;;;5082127;27;43220;-84
2022/04/10 09:27:34;;;;;;;;;;;18.50;37.10;;;;;;5073608;27;44020;-78
2022/04/10 09:30:01;;;;;;;;;;;18.50;37.40;;;;;;5083001;27;42985;-79
2022/04/10 09:32:36;;;;;;;;;;;18.50;37.50;;;;;;5091600;27;44701;-82
2022/04/10 09:35:02;;;;;;;;;;;18.50;37.50;;;;;;5084104;27;42915;-77
2022/04/10 09:37:30;;;;;;;;;;;18.50;37.60;;;;;;5095875;27;42976;-77
2022/04/10 09:40:15;;;;;;;;;;;18.50;37.80;;;;;;5083302;27;43271;-76
2022/04/10 09:42:41;;;;;;;;;;;18.50;37.80;;;;;;5076302;27;43855;-78
2022/04/10 09:45:25;;;;;;;;;;;18.50;37.80;;;;;;5084147;28;43205;-81
2022/04/10 09:47:50;;;;;;;;;;;18.60;38.30;;;;;;5091446;27;42980;-78
2022/04/10 09:50:16;;;;;;;;;;;18.50;37.60;;;;;;5087900;27;43045;-86
2022/04/10 09:52:42;;;;;;;;;;;18.60;38.00;;;;;;5090013;27;43252;-78
2022/04/10 09:55:10;;;;;;;;;;;18.40;37.80;;;;;;5084331;28;43138;-79
2022/04/10 09:57:35;;;;;;;;;;;18.60;37.80;;;;;;5098935;27;43471;-80
2022/04/10 10:00:02;;;;;;;;;;;18.40;38.80;;;;;;5088919;27;43029;-79
2022/04/10 10:02:28;;;;;;;;;;;18.60;37.60;;;;;;5101243;27;44773;-79
2022/04/10 10:05:06;;;;;;;;;;;18.60;37.80;;;;;;5097061;27;43004;-78
2022/04/10 10:07:33;;;;;;;;;;;18.60;38.20;;;;;;5100226;27;43085;-80
2022/04/10 10:09:59;;;;;;;;;;;18.60;37.70;;;;;;5097033;27;43307;-77
2022/04/10 10:12:27;;;;;;;;;;;18.60;37.80;;;;;;5082065;27;43657;-82
2022/04/10 10:14:53;;;;;;;;;;;18.60;37.80;;;;;;5086543;27;43063;-82
2022/04/10 10:17:18;;;;;;;;;;;18.60;37.80;;;;;;5086279;27;43375;-82
2022/04/10 10:19:44;;;;;;;;;;;18.60;37.80;;;;;;5090416;27;43074;-87
2022/04/10 10:22:11;;;;;;;;;;;18.60;37.70;;;;;;5094376;27;42920;-81
2022/04/10 10:24:45;;;;;;;;;;;18.60;37.90;;;;;;5096690;27;43066;-81
2022/04/10 10:27:22;;;;;;;;;;;18.60;37.90;;;;;;5095674;27;44038;-80
2022/04/10 10:29:53;;;;;;;;;;;18.60;37.90;;;;;;5088375;28;43106;-80
2022/04/10 10:32:30;;;;;;;;;;;18.70;37.90;;;;;;5086568;28;42995;-80
2022/04/10 10:34:56;;;;;;;;;;;18.70;37.90;;;;;;5088158;28;43103;-80
2022/04/10 10:37:31;;;;;;;;;;;18.70;38.50;;;;;;5088368;28;42930;-80
2022/04/10 10:39:58;;;;;;;;;;;18.70;38.00;;;;;;5086425;28;43043;-79
2022/04/10 10:42:24;;;;;;;;;;;18.70;38.00;;;;;;5087627;27;44486;-79
2022/04/10 10:44:50;;;;;;;;;;;18.70;38.00;;;;;;5087506;27;42979;-80
2022/04/10 10:47:19;;;;;;;;;;;18.70;38.10;;;;;;5087309;28;43698;-80
2022/04/10 10:49:46;;;;;;;;;;;18.70;38.00;;;;;;5097853;27;43036;-80
2022/04/10 10:52:13;;;;;;;;;;;18.70;38.10;;;;;;5087299;27;43280;-79
2022/04/10 10:54:52;;;;;;;;;;;18.70;38.20;;;;;;5087197;28;42965;-81
2022/04/10 10:57:41;;;;;;;;;;;18.70;38.00;;;;;;5084085;28;43119;-76
2022/04/10 11:00:09;;;;;;;;;;;18.70;38.00;;;;;;5080773;28;43089;-79
2022/04/10 11:02:42;;;;;;;;;;;18.70;38.00;;;;;;5084645;28;44076;-78
2022/04/10 11:17:31;;;;;;;;;;;17.40;37.30;;;;;;5932476;22;43707;-80
2022/04/10 11:20:12;;;;;;;;;;;18.90;38.00;;;;;;5104394;27;43043;-78
2022/04/10 11:25:57;;;;;;;;;;;19.00;38.50;;;;;;5096726;22;43258;-79
2022/04/10 11:28:24;;;;;;;;;;;18.70;37.90;;;;;;5086151;27;43007;-76
2022/04/10 11:33:55;;;;;;;;;;;19.00;38.10;;;;;;5090175;22;43318;-79
2022/04/10 11:36:20;;;;;;;;;;;18.80;38.20;;;;;;5087947;27;43249;-88
2022/04/10 11:39:04;;;;;;;;;;;18.80;38.10;;;;;;5086227;27;42987;-84
2022/04/10 11:41:30;;;;;;;;;;;18.70;37.80;;;;;;5084551;28;44434;-86
2022/04/10 11:43:56;;;;;;;;;;;21.40;39.80;;;;;;5085791;28;43124;-83
2022/04/10 11:46:29;;;;;;;;;;;18.70;38.10;;;;;;5086189;28;45349;-84
2022/04/10 11:49:01;;;;;;;;;;;20.00;38.30;;;;;;5085936;28;42983;-86
2022/04/10 11:51:30;;;;;;;;;;;20.70;38.60;;;;;;5106645;27;43068;-85
2022/04/10 11:53:57;;;;;;;;;;;18.70;37.80;;;;;;5111960;27;42387;-84
2022/04/10 11:56:23;;;;;;;;;;;18.80;37.40;;;;;;5103900;28;42794;-83
2022/04/10 11:58:49;;;;;;;;;;;18.80;37.70;;;;;;5094588;28;42707;-86
2022/04/10 12:01:14;;;;;;;;;;;18.70;37.60;;;;;;5088257;28;43183;-86
2022/04/10 12:03:41;;;;;;;;;;;18.80;37.80;;;;;;5087580;28;42981;-83
2022/04/10 12:06:08;;;;;;;;;;;18.80;37.80;;;;;;5086867;28;43101;-84
2022/04/10 12:08:35;;;;;;;;;;;18.70;37.70;;;;;;5087136;28;42980;-84
2022/04/10 12:11:01;;;;;;;;;;;18.80;37.70;;;;;;5085415;28;43695;-84
2022/04/10 12:13:27;;;;;;;;;;;18.80;37.60;;;;;;5086311;28;43055;-84
2022/04/10 12:16:09;;;;;;;;;;;18.80;37.70;;;;;;5085751;28;42930;-83
2022/04/10 12:18:45;;;;;;;;;;;18.80;37.70;;;;;;5087023;28;42881;-83
2022/04/10 12:21:11;;;;;;;;;;;20.90;38.80;;;;;;5087673;28;42903;-84
2022/04/10 12:23:36;;;;;;;;;;;18.80;37.60;;;;;;5086588;28;43546;-85
2022/04/10 12:26:02;;;;;;;;;;;18.80;37.60;;;;;;5085858;27;42960;-84
2022/04/10 12:28:28;;;;;;;;;;;18.80;37.60;;;;;;5086394;28;42894;-82
2022/04/10 12:30:54;;;;;;;;;;;18.80;37.50;;;;;;5085868;28;42994;-83
2022/04/10 12:33:20;;;;;;;;;;;18.80;37.60;;;;;;5086615;28;43224;-86
2022/04/10 12:35:46;;;;;;;;;;;18.80;37.50;;;;;;5086197;28;43691;-86
2022/04/10 12:38:12;;;;;;;;;;;18.80;37.50;;;;;;5085631;28;42814;-86
2022/04/10 12:40:39;;;;;;;;;;;18.80;37.50;;;;;;5087137;28;43012;-82
2022/04/10 12:43:05;;;;;;;;;;;18.80;37.50;;;;;;5086971;28;42865;-84
2022/04/10 12:45:32;;;;;;;;;;;18.80;37.40;;;;;;5085635;28;43386;-85
2022/04/10 12:47:58;;;;;;;;;;;18.80;37.50;;;;;;5086262;28;42948;-81
2022/04/10 12:50:25;;;;;;;;;;;18.80;37.50;;;;;;5086247;28;42947;-83
2022/04/10 12:52:55;;;;;;;;;;;18.80;37.50;;;;;;5085877;28;43067;-87
2022/04/10 12:55:24;;;;;;;;;;;18.80;37.50;;;;;;5086474;28;44311;-87
2022/04/10 12:57:53;;;;;;;;;;;18.80;37.40;;;;;;5087542;28;42882;-83
2022/04/10 13:00:35;;;;;;;;;;;18.80;37.40;;;;;;5086045;28;44000;-87
2022/04/10 13:03:20;;;;;;;;;;;18.80;37.40;;;;;;5085823;28;43009;-83
2022/04/10 13:05:57;;;;;;;;;;;18.80;37.40;;;;;;5085282;28;42832;-87
2022/04/10 13:08:24;;;;;;;;;;;18.80;37.30;;;;;;5086023;28;42952;-87
2022/04/10 13:10:50;;;;;;;;;;;18.80;37.40;;;;;;5085866;28;44496;-82
2022/04/10 13:13:15;;;;;;;;;;;18.90;37.40;;;;;;5086494;28;42945;-83
2022/04/10 13:15:44;;;;;;;;;;;18.80;37.40;;;;;;5086671;28;43706;-88
2022/04/10 13:18:09;;;;;;;;;;;18.80;37.40;;;;;;5086277;28;42834;-84
2022/04/10 13:20:36;;;;;;;;;;;18.80;37.50;;;;;;5086472;28;43119;-89
2022/04/10 13:23:03;;;;;;;;;;;18.80;37.40;;;;;;5084479;27;59614;-85
2022/04/10 13:25:32;;;;;;;;;;;18.80;37.40;;;;;;5085115;28;43585;-85
2022/04/10 13:27:59;;;;;;;;;;;18.90;37.40;;;;;;5085885;27;43507;-84
2022/04/10 13:30:25;;;;;;;;;;;18.90;37.30;;;;;;5084690;28;45473;-84
2022/04/10 13:32:51;;;;;;;;;;;18.90;37.30;;;;;;5086395;28;42965;-83
2022/04/10 13:35:16;;;;;;;;;;;18.90;37.40;;;;;;5085977;28;43441;-85
2022/04/10 13:37:43;;;;;;;;;;;18.90;37.30;;;;;;5084478;28;42924;-82
2022/04/10 13:40:08;;;;;;;;;;;18.90;37.30;;;;;;5086103;28;43028;-83
2022/04/10 13:42:34;;;;;;;;;;;18.90;37.40;;;;;;5086854;28;43030;-84
2022/04/10 13:45:00;;;;;;;;;;;18.90;37.30;;;;;;5086135;28;42983;-84
2022/04/10 13:47:26;;;;;;;;;;;18.90;37.30;;;;;;5085507;28;42988;-85
2022/04/10 13:49:51;;;;;;;;;;;18.80;37.40;;;;;;5085858;28;43462;-85
2022/04/10 13:52:17;;;;;;;;;;;18.90;37.20;;;;;;5085717;28;42918;-84
2022/04/10 13:54:42;;;;;;;;;;;18.90;37.30;;;;;;5085008;28;43719;-84
2022/04/10 13:57:08;;;;;;;;;;;18.90;37.30;;;;;;5084882;28;43012;-85
2022/04/10 13:59:34;;;;;;;;;;;18.90;37.40;;;;;;5085155;27;42984;-85
2022/04/10 14:01:59;;;;;;;;;;;18.90;37.30;;;;;;5084913;28;42910;-85
2022/04/10 14:04:26;;;;;;;;;;;18.90;37.20;;;;;;5085773;28;42976;-84
2022/04/10 14:06:51;;;;;;;;;;;18.90;37.30;;;;;;5085324;28;42804;-84
2022/04/10 14:09:17;;;;;;;;;;;18.90;37.20;;;;;;5086005;28;43273;-84
2022/04/10 14:11:43;;;;;;;;;;;18.80;37.60;;;;;;5086344;28;42973;-86
2022/04/10 14:14:10;;;;;;;;;;;18.90;37.20;;;;;;5086022;28;43499;-84
2022/04/10 14:16:36;;;;;;;;;;;18.90;37.30;;;;;;5086058;28;42940;-85
2022/04/10 14:19:02;;;;;;;;;;;19.00;37.20;;;;;;5085440;28;43022;-84
2022/04/10 14:21:28;;;;;;;;;;;18.90;37.20;;;;;;5085265;28;42873;-84
2022/04/10 14:23:54;;;;;;;;;;;18.90;37.20;;;;;;5085800;28;42832;-84
2022/04/10 14:26:19;;;;;;;;;;;18.90;37.20;;;;;;5085121;28;42851;-83
2022/04/10 14:28:45;;;;;;;;;;;18.90;37.10;;;;;;5106935;27;43729;-86
2022/04/10 14:31:10;;;;;;;;;;;18.90;37.10;;;;;;5108990;27;42717;-84
2022/04/10 14:33:36;;;;;;;;;;;18.90;37.20;;;;;;5094943;28;44312;-84
2022/04/10 14:36:02;;;;;;;;;;;18.90;37.00;;;;;;5090084;28;42814;-85
2022/04/10 14:38:31;;;;;;;;;;;18.90;37.20;;;;;;5086571;28;43472;-84
2022/04/10 14:40:59;;;;;;;;;;;18.90;37.10;;;;;;5085827;28;42904;-85
2022/04/10 14:43:25;;;;;;;;;;;18.90;37.10;;;;;;5085130;28;43063;-88
2022/04/10 14:45:51;;;;;;;;;;;18.90;37.00;;;;;;5084773;28;42771;-85